createdAt,value
2022-11-03T00:01:39.812Z,19.55
2022-11-03T00:04:09.473Z,16.38
2022-11-03T00:06:39.788Z,20.05
2022-11-03T00:09:09.789Z,20.15
2022-11-03T00:11:40.099Z,27.80
2022-11-03T00:14:10.240Z,24.10
2022-11-03T00:16:38.938Z,25.50
2022-11-03T00:19:07.814Z,24.52
2022-11-03T00:21:35.905Z,27.10
2022-11-03T00:24:06.527Z,29.88
2022-11-03T00:26:35.976Z,26.53
2022-11-03T00:29:08.224Z,25.92
2022-11-03T00:31:37.435Z,29.52
2022-11-03T00:34:07.260Z,26.95
2022-11-03T00:36:37.987Z,25.00
2022-11-03T00:39:08.200Z,28.17
2022-11-03T00:41:36.850Z,29.08
2022-11-03T00:44:05.497Z,27.75
2022-11-03T00:46:35.474Z,31.98
2022-11-03T00:49:04.707Z,27.20
2022-11-03T00:51:34.625Z,25.92
2022-11-03T00:54:04.464Z,25.02
2022-11-03T00:56:35.580Z,24.60
2022-11-03T00:59:05.277Z,25.08
2022-11-03T01:01:36.257Z,20.10
2022-11-03T01:04:23.408Z,18.75
2022-11-03T01:06:54.379Z,17.67
2022-11-03T01:09:24.418Z,19.70
2022-11-03T01:11:58.287Z,16.15
2022-11-03T01:14:28.020Z,16.20
2022-11-03T01:16:56.119Z,16.63
2022-11-03T01:19:25.404Z,13.60
2022-11-03T01:21:53.856Z,15.43
2022-11-03T01:24:22.777Z,16.73
2022-11-03T01:26:50.883Z,15.68
2022-11-03T01:29:20.587Z,18.05
2022-11-03T01:31:49.092Z,19.75
2022-11-03T01:34:18.789Z,21.13
2022-11-03T01:36:47.731Z,18.17
2022-11-03T01:39:18.239Z,17.48
2022-11-03T01:41:49.040Z,21.40
2022-11-03T01:44:33.390Z,23.98
2022-11-03T01:47:08.838Z,20.15
2022-11-03T01:49:41.359Z,20.48
2022-11-03T01:52:13.012Z,22.63
2022-11-03T01:54:43.221Z,23.88
2022-11-03T01:57:15.085Z,22.23
2022-11-03T01:59:45.639Z,20.17
2022-11-03T02:02:14.250Z,22.07
2022-11-03T02:04:43.000Z,20.58
2022-11-03T02:07:16.977Z,18.10
2022-11-03T02:09:45.390Z,20.20
2022-11-03T02:12:13.497Z,19.73
2022-11-03T02:14:46.711Z,20.92
2022-11-03T02:17:16.030Z,18.92
2022-11-03T02:19:46.824Z,20.15
2022-11-03T02:22:41.785Z,24.67
2022-11-03T02:25:17.680Z,20.65
2022-11-03T02:27:47.317Z,17.77
2022-11-03T02:30:16.071Z,18.45
2022-11-03T02:32:52.719Z,16.52
2022-11-03T02:35:23.576Z,13.23
2022-11-03T02:37:55.720Z,14.80
2022-11-03T02:40:29.061Z,18.00
2022-11-03T02:43:00.444Z,18.67
2022-11-03T02:45:29.481Z,16.25
2022-11-03T02:48:00.446Z,16.52
2022-11-03T02:52:57.623Z,17.83
2022-11-03T02:55:34.150Z,15.68
2022-11-03T02:58:09.553Z,15.52
2022-11-03T03:00:43.914Z,16.00
2022-11-03T03:03:15.692Z,19.25
2022-11-03T03:05:46.832Z,23.63
2022-11-03T03:08:15.810Z,21.60
2022-11-03T03:10:45.371Z,22.98
2022-11-03T03:13:16.915Z,28.05
2022-11-03T03:15:47.963Z,26.73
2022-11-03T03:18:24.600Z,22.02
2022-11-03T03:20:57.612Z,25.60
2022-11-03T03:23:28.004Z,25.55
2022-11-03T03:26:00.137Z,26.65
2022-11-03T03:28:34.075Z,25.55
2022-11-03T03:31:03.007Z,22.85
2022-11-03T03:33:31.320Z,19.83
2022-11-03T03:36:01.142Z,19.60
2022-11-03T03:38:33.972Z,26.48
2022-11-03T03:41:05.520Z,28.50
2022-11-03T03:43:37.801Z,25.85
2022-11-03T03:46:09.282Z,25.30
2022-11-03T03:48:37.585Z,21.30
2022-11-03T03:51:06.930Z,17.85
2022-11-03T03:53:35.024Z,13.48
2022-11-03T03:56:05.900Z,17.25
2022-11-03T03:58:34.003Z,23.23
2022-11-03T04:01:03.843Z,27.80
2022-11-03T04:03:32.097Z,25.40
2022-11-03T04:06:00.310Z,29.33
2022-11-03T04:08:28.642Z,29.80
2022-11-03T04:11:14.422Z,28.52
2022-11-03T04:14:00.209Z,21.92
2022-11-03T04:16:47.370Z,31.27
2022-11-03T04:19:33.413Z,26.25
2022-11-03T04:22:21.427Z,25.13
2022-11-03T04:24:51.185Z,24.88
2022-11-03T04:27:37.523Z,21.58
2022-11-03T04:30:15.590Z,21.38
2022-11-03T04:32:45.915Z,24.33
2022-11-03T04:35:18.785Z,19.20
2022-11-03T04:37:48.034Z,18.23
2022-11-03T04:40:18.511Z,18.25
2022-11-03T04:42:47.569Z,21.80
2022-11-03T04:45:22.946Z,18.10
2022-11-03T04:47:53.529Z,13.80
2022-11-03T04:50:24.658Z,21.35
2022-11-03T04:52:55.991Z,17.48
2022-11-03T04:55:24.458Z,20.83
2022-11-03T04:57:56.332Z,20.00
2022-11-03T05:00:25.349Z,17.83
2022-11-03T05:02:56.321Z,16.70
2022-11-03T05:05:27.407Z,21.73
2022-11-03T05:07:56.978Z,22.27
2022-11-03T05:10:26.964Z,20.00
2022-11-03T05:12:55.653Z,20.90
2022-11-03T05:15:31.163Z,21.52
2022-11-03T05:18:01.600Z,27.80
2022-11-03T05:20:36.218Z,23.20
2022-11-03T05:23:05.631Z,28.40
2022-11-03T05:25:41.582Z,32.65
2022-11-03T05:28:16.213Z,46.10
2022-11-03T05:30:44.686Z,35.60
2022-11-03T05:33:20.443Z,30.00
2022-11-03T05:35:49.240Z,26.02
2022-11-03T05:38:19.274Z,25.83
2022-11-03T05:40:47.964Z,24.15
2022-11-03T05:43:16.550Z,20.73
2022-11-03T05:45:45.838Z,19.70
2022-11-03T05:48:19.995Z,18.48
2022-11-03T05:50:48.351Z,19.83
2022-11-03T05:53:29.103Z,19.92
2022-11-03T05:56:02.074Z,22.90
2022-11-03T05:58:35.152Z,30.50
2022-11-03T06:01:07.958Z,31.40
2022-11-03T06:03:40.215Z,31.58
2022-11-03T06:06:17.732Z,34.60
2022-11-03T06:08:46.335Z,31.30
2022-11-03T06:11:26.050Z,32.53
2022-11-03T06:13:54.259Z,38.15
2022-11-03T06:16:33.772Z,31.83
2022-11-03T06:19:11.979Z,25.92
2022-11-03T06:21:44.435Z,27.90
2022-11-03T06:24:13.128Z,26.55
2022-11-03T06:26:43.063Z,30.10
2022-11-03T06:29:14.641Z,30.17
2022-11-03T06:31:44.305Z,29.98
2022-11-03T06:34:31.559Z,28.73
2022-11-03T06:37:00.866Z,32.72
2022-11-03T06:39:29.006Z,29.83
2022-11-03T06:41:57.519Z,28.75
2022-11-03T06:44:26.880Z,52.67
2022-11-03T06:46:55.957Z,29.00
2022-11-03T06:49:32.318Z,31.80
2022-11-03T06:52:04.223Z,27.00
2022-11-03T06:54:32.292Z,29.13
2022-11-03T06:57:00.978Z,28.05
2022-11-03T06:59:29.046Z,23.25
2022-11-03T07:01:57.623Z,25.15
2022-11-03T07:04:29.310Z,24.15
2022-11-03T07:07:02.371Z,20.83
2022-11-03T07:09:30.594Z,24.20
2022-11-03T07:12:01.163Z,19.73
2022-11-03T07:14:30.618Z,19.45
2022-11-03T07:17:02.563Z,21.17
2022-11-03T07:19:32.066Z,24.30
2022-11-03T07:22:03.104Z,19.10
2022-11-03T07:24:32.837Z,19.48
2022-11-03T07:27:07.090Z,20.92
2022-11-03T07:29:35.215Z,20.08
2022-11-03T07:32:04.016Z,18.63
2022-11-03T07:34:34.036Z,18.85
2022-11-03T07:37:04.461Z,19.00
2022-11-03T07:39:36.406Z,20.25
2022-11-03T07:42:13.181Z,19.42
2022-11-03T07:44:41.797Z,23.67
2022-11-03T07:47:13.746Z,24.73
2022-11-03T07:49:42.506Z,19.92
2022-11-03T07:52:16.031Z,17.55
2022-11-03T07:54:44.280Z,31.95
2022-11-03T07:57:15.276Z,26.67
2022-11-03T07:59:44.779Z,30.13
2022-11-03T08:02:27.729Z,30.05
2022-11-03T08:04:55.913Z,20.42
2022-11-03T08:07:25.653Z,25.33
2022-11-03T08:09:53.824Z,24.77
2022-11-03T08:12:22.303Z,27.88
2022-11-03T08:14:50.602Z,27.52
2022-11-03T08:17:19.033Z,23.65
2022-11-03T08:19:47.181Z,23.50
2022-11-03T08:22:15.776Z,23.48
2022-11-03T08:24:45.428Z,22.02
2022-11-03T08:27:14.075Z,21.23
2022-11-03T08:29:42.297Z,22.00
2022-11-03T08:32:10.612Z,16.92
2022-11-03T08:34:38.919Z,22.55
2022-11-03T08:37:07.385Z,22.05
2022-11-03T08:39:36.271Z,17.98
2022-11-03T08:42:06.153Z,19.80
2022-11-03T08:44:34.167Z,16.17
2022-11-03T08:47:02.604Z,13.48
2022-11-03T08:49:30.721Z,16.42
2022-11-03T08:51:59.111Z,16.58
2022-11-03T08:54:27.170Z,17.55
2022-11-03T08:56:55.551Z,17.90
2022-11-03T08:59:24.989Z,17.63
2022-11-03T09:01:53.532Z,15.80
2022-11-03T09:04:21.792Z,14.45
2022-11-03T09:06:50.315Z,15.77
2022-11-03T09:12:07.143Z,15.98
2022-11-03T09:14:36.753Z,14.55
2022-11-03T09:17:05.180Z,14.52
2022-11-03T09:19:35.843Z,12.10
2022-11-03T09:22:04.180Z,18.98
2022-11-03T09:24:32.692Z,13.73
2022-11-03T09:27:02.477Z,14.50
2022-11-03T09:29:51.646Z,10.90
2022-11-03T09:32:23.522Z,13.38
2022-11-03T09:34:52.143Z,9.98
2022-11-03T09:37:20.458Z,43.97
2022-11-03T09:39:48.879Z,30.55
2022-11-03T09:42:17.984Z,11.43
2022-11-03T09:44:49.096Z,11.30
2022-11-03T09:47:24.290Z,9.95
2022-11-03T09:49:52.965Z,7.97
2022-11-03T09:52:23.907Z,10.45
2022-11-03T09:54:55.371Z,11.45
2022-11-03T09:57:24.173Z,10.35
2022-11-03T09:59:52.800Z,11.23
2022-11-03T10:02:26.948Z,11.93
2022-11-03T10:04:57.826Z,32.08
2022-11-03T10:07:27.760Z,14.80
2022-11-03T10:09:56.269Z,7.30
2022-11-03T10:12:25.684Z,19.83
2022-11-03T10:14:54.198Z,22.67
2022-11-03T10:17:25.795Z,7.80
2022-11-03T10:19:58.096Z,24.40
2022-11-03T10:22:26.759Z,9.15
2022-11-03T10:25:28.924Z,6.00
2022-11-03T10:28:15.602Z,6.55
2022-11-03T10:31:11.409Z,7.10
2022-11-03T10:33:42.527Z,6.13
2022-11-03T10:36:26.232Z,7.03
2022-11-03T10:38:56.416Z,9.38
2022-11-03T10:41:25.943Z,3.90
2022-11-03T10:44:05.880Z,4.85
2022-11-03T10:46:51.249Z,9.35
2022-11-03T10:49:21.171Z,8.63
2022-11-03T10:51:52.989Z,5.97
2022-11-03T10:54:23.027Z,11.60
2022-11-03T10:56:52.375Z,10.10
2022-11-03T10:59:22.081Z,8.88
2022-11-03T11:01:50.638Z,8.40
2022-11-03T11:04:22.013Z,10.20
2022-11-03T11:06:52.792Z,8.30
2022-11-03T11:09:25.627Z,8.80
2022-11-03T11:12:01.747Z,6.72
2022-11-03T11:14:39.376Z,5.85
2022-11-03T11:17:41.061Z,8.95
2022-11-03T11:20:30.536Z,5.68
2022-11-03T11:23:49.312Z,13.32
2022-11-03T11:26:32.179Z,5.93
2022-11-03T11:29:46.056Z,4.88
2022-11-03T11:32:47.978Z,9.00
2022-11-03T11:36:10.083Z,9.55
2022-11-03T11:39:05.734Z,9.88
2022-11-03T11:42:10.532Z,8.10
2022-11-03T11:44:57.872Z,8.57
2022-11-03T11:47:29.193Z,6.18
2022-11-03T11:50:39.036Z,9.32
2022-11-03T11:53:15.571Z,5.93
2022-11-03T11:55:47.019Z,6.72
2022-11-03T11:58:20.665Z,5.70
2022-11-03T12:00:55.036Z,8.77
2022-11-03T12:03:28.110Z,4.60
2022-11-03T12:05:56.405Z,4.82
2022-11-03T12:08:30.798Z,5.03
2022-11-03T12:11:01.971Z,4.68
2022-11-03T12:13:53.137Z,5.80
2022-11-03T12:16:34.915Z,6.38
2022-11-03T12:19:38.512Z,7.43
2022-11-03T12:22:09.093Z,4.70
2022-11-03T12:24:40.623Z,5.95
2022-11-03T12:27:43.402Z,7.03
2022-11-03T12:30:19.724Z,5.13
2022-11-03T12:32:48.667Z,6.05
2022-11-03T12:35:17.350Z,5.80
2022-11-03T12:37:46.462Z,9.07
2022-11-03T12:40:15.017Z,4.75
2022-11-03T12:42:43.512Z,6.25
2022-11-03T12:45:14.000Z,6.65
2022-11-03T12:47:43.747Z,7.93
2022-11-03T12:50:12.421Z,6.55
2022-11-03T12:52:40.750Z,7.28
2022-11-03T12:55:09.897Z,8.60
2022-11-03T12:57:38.127Z,6.38
2022-11-03T13:00:07.861Z,5.72
2022-11-03T13:02:36.296Z,8.73
2022-11-03T13:05:07.021Z,8.50
2022-11-03T13:07:35.354Z,7.55
2022-11-03T13:10:04.910Z,9.38
2022-11-03T13:12:33.940Z,7.07
2022-11-03T13:15:04.232Z,5.38
2022-11-03T13:17:52.018Z,9.38
2022-11-03T13:20:22.304Z,8.40
2022-11-03T13:22:50.608Z,6.53
2022-11-03T13:25:19.697Z,8.43
2022-11-03T13:27:53.847Z,8.13
2022-11-03T13:30:22.665Z,6.88
2022-11-03T13:32:50.891Z,9.95
2022-11-03T13:35:19.531Z,9.68
2022-11-03T13:37:49.190Z,7.55
2022-11-03T13:43:06.545Z,9.57
2022-11-03T13:45:35.433Z,8.48
2022-11-03T13:49:08.775Z,8.45
2022-11-03T13:50:53.779Z,8.30
2022-11-03T13:56:18.967Z,8.75
2022-11-03T14:01:38.827Z,8.20
2022-11-03T14:06:55.641Z,14.93
2022-11-03T14:09:25.468Z,8.75
2022-11-03T14:12:11.412Z,9.70
2022-11-03T14:14:39.536Z,11.23
2022-11-03T14:17:08.000Z,13.88
2022-11-03T14:19:42.921Z,15.35
2022-11-03T14:22:13.485Z,10.30
2022-11-03T14:24:43.019Z,11.30
2022-11-03T14:27:11.476Z,10.15
2022-11-03T14:29:39.816Z,10.70
2022-11-03T14:32:08.575Z,9.48
2022-11-03T14:34:37.130Z,10.50
2022-11-03T14:37:06.085Z,7.18
2022-11-03T14:39:34.427Z,12.80
2022-11-03T14:42:03.665Z,13.13
2022-11-03T14:44:32.617Z,15.70
2022-11-03T14:47:01.888Z,9.30
2022-11-03T14:49:30.806Z,10.18
2022-11-03T14:51:59.653Z,10.93
2022-11-03T14:54:28.191Z,10.80
2022-11-03T14:56:56.394Z,12.88
2022-11-03T14:59:26.339Z,12.27
2022-11-03T15:01:55.474Z,18.42
2022-11-03T15:04:24.306Z,13.60
2022-11-03T15:06:52.559Z,13.65
2022-11-03T15:09:21.113Z,12.05
2022-11-03T15:11:49.193Z,11.43
2022-11-03T15:14:17.735Z,16.48
2022-11-03T15:16:48.199Z,16.52
2022-11-03T15:19:16.339Z,13.10
2022-11-03T15:21:44.587Z,18.63
2022-11-03T15:27:01.060Z,15.13
2022-11-03T15:29:29.631Z,20.20
2022-11-03T15:31:59.013Z,20.42
2022-11-03T15:34:27.601Z,18.55
2022-11-03T15:36:55.744Z,20.63
2022-11-03T15:39:24.227Z,16.90
2022-11-03T15:41:52.297Z,19.08
2022-11-03T15:44:20.661Z,16.73
2022-11-03T15:46:48.761Z,14.80
2022-11-03T15:49:18.152Z,17.77
2022-11-03T15:51:46.810Z,19.55
2022-11-03T15:54:14.908Z,19.50
2022-11-03T15:56:43.500Z,22.13
2022-11-03T15:59:11.732Z,17.17
2022-11-03T16:01:40.445Z,15.95
2022-11-03T16:04:08.940Z,15.18
2022-11-03T16:07:07.513Z,18.85
2022-11-03T16:09:27.223Z,18.20
2022-11-03T16:11:55.577Z,18.95
2022-11-03T16:14:23.701Z,25.05
2022-11-03T16:16:51.896Z,18.75
2022-11-03T16:19:20.208Z,20.45
2022-11-03T16:21:49.915Z,20.15
2022-11-03T16:24:18.496Z,20.08
2022-11-03T16:26:46.850Z,25.00
2022-11-03T16:29:15.207Z,22.23
2022-11-03T16:31:43.444Z,21.05
2022-11-03T16:34:11.923Z,19.73
2022-11-03T16:36:40.185Z,25.85
2022-11-03T16:39:10.752Z,23.40
2022-11-03T16:41:39.479Z,17.75
2022-11-03T16:44:08.330Z,36.05
2022-11-03T16:46:36.641Z,26.80
2022-11-03T16:49:05.081Z,37.25
2022-11-03T16:51:33.602Z,36.80
2022-11-03T16:54:02.026Z,35.88
2022-11-03T16:56:31.697Z,18.83
2022-11-03T16:59:00.110Z,25.08
2022-11-03T17:01:28.584Z,33.80
2022-11-03T17:03:57.272Z,27.65
2022-11-03T17:06:25.588Z,20.30
2022-11-03T17:08:54.106Z,17.23
2022-11-03T17:14:17.955Z,20.88
2022-11-03T17:16:47.302Z,17.77
2022-11-03T17:19:15.719Z,35.47
2022-11-03T17:21:44.675Z,19.80
2022-11-03T17:24:13.496Z,17.63
2022-11-03T17:26:51.498Z,17.92
2022-11-03T17:29:24.494Z,18.48
2022-11-03T17:31:53.284Z,16.48
2022-11-03T17:34:24.385Z,20.02
2022-11-03T17:36:53.894Z,17.70
2022-11-03T17:39:29.312Z,19.30
2022-11-03T17:42:05.589Z,18.58
2022-11-03T17:44:35.133Z,18.40
2022-11-03T17:47:03.524Z,19.08
2022-11-03T17:49:31.839Z,20.90
2022-11-03T17:52:00.252Z,15.15
2022-11-03T17:54:30.051Z,19.45
2022-11-03T17:56:58.739Z,18.23
2022-11-03T17:59:27.338Z,17.30
2022-11-03T18:01:57.375Z,21.98
2022-11-03T18:04:25.667Z,20.02
2022-11-03T18:06:54.024Z,20.45
2022-11-03T18:09:22.990Z,17.20
2022-11-03T18:12:09.064Z,15.52
2022-11-03T18:14:37.217Z,17.38
2022-11-03T18:17:07.154Z,16.88
2022-11-03T18:19:35.518Z,16.13
2022-11-03T18:22:04.221Z,19.02
2022-11-03T18:24:32.376Z,25.17
2022-11-03T18:27:00.821Z,18.33
2022-11-03T18:29:29.052Z,21.30
2022-11-03T18:31:58.023Z,18.27
2022-11-03T18:34:28.270Z,19.88
2022-11-03T18:36:56.684Z,18.33
2022-11-03T18:39:26.412Z,19.67
2022-11-03T18:41:55.263Z,20.70
2022-11-03T18:44:25.318Z,17.92
2022-11-03T18:46:55.484Z,19.20
2022-11-03T18:49:24.088Z,17.08
2022-11-03T18:52:02.117Z,21.38
2022-11-03T18:54:31.581Z,19.58
2022-11-03T18:57:00.257Z,18.70
2022-11-03T18:59:30.927Z,17.02
2022-11-03T19:01:59.531Z,18.65
2022-11-03T19:04:27.838Z,18.50
2022-11-03T19:06:58.527Z,19.33
2022-11-03T19:09:27.727Z,19.50
2022-11-03T19:11:58.037Z,15.10
2022-11-03T19:14:31.828Z,18.38
2022-11-03T19:19:48.678Z,19.20
2022-11-03T19:22:19.989Z,20.40
2022-11-03T19:24:48.076Z,19.95
2022-11-03T19:27:18.310Z,19.55
2022-11-03T19:29:47.296Z,21.15
2022-11-03T19:32:18.393Z,18.70
2022-11-03T19:34:46.733Z,18.60
2022-11-03T19:37:15.823Z,19.50
2022-11-03T19:39:45.328Z,22.45
2022-11-03T19:42:31.998Z,19.60
2022-11-03T19:45:01.138Z,20.52
2022-11-03T19:47:33.252Z,22.42
2022-11-03T19:50:01.846Z,19.55
2022-11-03T19:52:31.549Z,24.23
2022-11-03T19:55:02.491Z,23.50
2022-11-03T19:57:31.034Z,24.95
2022-11-03T19:59:59.839Z,19.02
2022-11-03T20:02:29.235Z,28.55
2022-11-03T20:04:57.586Z,28.60
2022-11-03T20:07:31.506Z,27.67
2022-11-03T20:10:02.845Z,23.67
2022-11-03T20:12:32.262Z,23.65
2022-11-03T20:15:00.368Z,25.33
2022-11-03T20:17:28.994Z,25.42
2022-11-03T20:19:57.373Z,23.80
2022-11-03T20:22:29.157Z,19.92
2022-11-03T20:27:27.340Z,20.17
2022-11-03T20:29:56.170Z,22.83
2022-11-03T20:32:24.284Z,26.70
2022-11-03T20:34:52.704Z,28.10
2022-11-03T20:37:22.030Z,21.73
2022-11-03T20:39:50.381Z,23.83
2022-11-03T20:42:21.716Z,24.90
2022-11-03T20:44:51.877Z,25.10
2022-11-03T20:47:21.018Z,22.85
2022-11-03T20:49:49.346Z,25.58
2022-11-03T20:52:17.681Z,21.90
2022-11-03T20:54:46.309Z,28.23
2022-11-03T20:57:14.682Z,22.48
2022-11-03T20:59:43.094Z,24.80
2022-11-03T21:02:14.166Z,23.58
2022-11-03T21:04:43.325Z,27.35
2022-11-03T21:07:13.201Z,23.90
2022-11-03T21:09:42.225Z,24.70
2022-11-03T21:12:13.773Z,27.88
2022-11-03T21:15:04.210Z,23.60
2022-11-03T21:17:50.825Z,22.08
2022-11-03T21:20:19.162Z,24.23
2022-11-03T21:22:54.676Z,20.80
2022-11-03T21:25:24.704Z,22.52
2022-11-03T21:27:53.850Z,21.98
2022-11-03T21:30:23.209Z,25.27
2022-11-03T21:32:52.890Z,29.42
2022-11-03T21:35:22.602Z,28.45
2022-11-03T21:37:50.773Z,26.50
2022-11-03T21:40:19.183Z,28.83
2022-11-03T21:43:04.577Z,27.65
2022-11-03T21:45:33.091Z,25.90
2022-11-03T21:48:20.771Z,25.40
2022-11-03T21:50:49.434Z,23.27
2022-11-03T21:53:17.517Z,26.25
2022-11-03T21:55:48.433Z,26.35
2022-11-03T21:58:16.529Z,25.70
2022-11-03T22:00:47.167Z,23.33
2022-11-03T22:03:16.876Z,22.65
2022-11-03T22:05:45.357Z,25.75
2022-11-03T22:08:13.543Z,25.08
2022-11-03T22:10:42.272Z,23.95
2022-11-03T22:13:11.051Z,22.88
2022-11-03T22:15:56.998Z,20.25
2022-11-03T22:18:26.609Z,23.42
2022-11-03T22:21:12.739Z,25.48
2022-11-03T22:23:58.079Z,27.20
2022-11-03T22:26:43.655Z,30.27
2022-11-03T22:29:29.233Z,27.70
2022-11-03T22:31:57.678Z,28.88
2022-11-03T22:34:44.807Z,25.77
2022-11-03T22:37:13.216Z,24.02
2022-11-03T22:39:59.172Z,20.30
2022-11-03T22:45:35.320Z,24.40
2022-11-03T22:48:04.823Z,25.35
2022-11-03T22:50:34.259Z,25.15
2022-11-03T22:53:23.050Z,25.88
2022-11-03T22:55:50.144Z,24.42
2022-11-03T22:58:18.640Z,22.90
2022-11-03T23:00:48.074Z,21.45
2022-11-03T23:03:18.107Z,25.27
2022-11-03T23:05:47.644Z,24.65
2022-11-03T23:08:16.062Z,23.45
2022-11-03T23:10:44.124Z,25.80
2022-11-03T23:13:12.217Z,24.40
2022-11-03T23:15:43.823Z,27.80
2022-11-03T23:18:29.107Z,27.90
2022-11-03T23:21:07.808Z,22.75
2022-11-03T23:23:54.002Z,25.73
2022-11-03T23:26:22.692Z,19.98
2022-11-03T23:28:51.025Z,21.40
2022-11-03T23:31:19.598Z,20.30
2022-11-03T23:33:47.817Z,22.05
2022-11-03T23:36:18.767Z,22.88
2022-11-03T23:38:47.250Z,22.83
2022-11-03T23:41:16.661Z,22.23
2022-11-03T23:43:45.941Z,23.70
2022-11-03T23:46:33.209Z,20.58
2022-11-03T23:49:01.697Z,21.65
2022-11-03T23:51:32.074Z,21.50
2022-11-03T23:54:01.521Z,25.40
2022-11-03T23:56:49.446Z,22.90
2022-11-03T23:59:18.330Z,22.42
